Wanborough, United Kingdom
Current Conditions -  °F | °C
As of 2:28 AM on Monday 26 Jan 2015 (Local Time) from EGVA Reporting Station
Overcast Overcast  
Wind Chill: 44°   Ceiling: 600
Heat Index: 48°   Visibility: 6mi
Dew Point: 48°   Wind: 9mph
Humidity: 100%   Direction: 240°WSW
Pressure: 30.2"   Gusts: NA
Location:  51.54°N, 1.7°W
Report Text: EGVA 260228Z AUTO 24008KT 9999 OVC006 09/09 A3020 RMK AO2 $
Loading
Personal Weather Stations






























Interactive Weather Map New forecast layout! Learn more

10-Day Weather Forecast

Advertisements
Track Severe Weather on mobile